Time;durP1;ratioP1;P1;durP2;ratioP2;P2;SDS_P1;SDS_P2;PMS_P1;PMS_P2;Temp;Humidity;BMP_temperature;BMP_pressure;BME280_temperature;BME280_humidity;BME280_pressure;Samples;Min_cycle;Max_cycle;Signal;HPM_P1;HPM_P2
2023/04/15 00:00:12;;;;;;;10.38;4.10;;;;;;;12.26;100.00;99771.09;5007335;28;20073;-72
2023/04/15 00:02:37;;;;;;;13.13;4.30;;;;;;;11.82;100.00;99688.53;5007905;28;20524;-72
2023/04/15 00:05:04;;;;;;;6.47;3.88;;;;;;;11.51;100.00;99669.78;5009541;28;20124;-72
2023/04/15 00:07:30;;;;;;;7.95;4.15;;;;;;;11.57;100.00;99657.41;5017783;28;20046;-72
2023/04/15 00:09:56;;;;;;;7.47;4.70;;;;;;;12.51;100.00;99823.28;5005663;28;20066;-72
2023/04/15 00:12:23;;;;;;;7.70;4.25;;;;;;;12.37;100.00;99798.06;5005400;28;20046;-72
2023/04/15 00:14:49;;;;;;;9.02;3.88;;;;;;;11.89;100.00;99716.47;5008567;28;20030;-75
2023/04/15 00:17:14;;;;;;;7.97;3.53;;;;;;;12.31;100.00;99818.34;4998627;28;20057;-74
2023/04/15 00:19:40;;;;;;;7.20;4.13;;;;;;;12.16;100.00;99786.16;4987432;28;20070;-71
2023/04/15 00:22:06;;;;;;;11.07;4.25;;;;;;;12.01;100.00;99781.13;5013738;28;20056;-74
2023/04/15 00:24:32;;;;;;;8.30;4.85;;;;;;;11.74;100.00;99771.91;5005706;28;20104;-74
2023/04/15 00:26:58;;;;;;;6.93;4.32;;;;;;;11.55;100.00;99760.81;5006708;28;20018;-72
2023/04/15 00:29:24;;;;;;;13.50;5.65;;;;;;;10.88;100.00;99650.53;5011025;28;20553;-72
2023/04/15 00:31:50;;;;;;;7.55;4.75;;;;;;;11.08;100.00;99687.03;5010246;28;20060;-73
2023/04/15 00:34:16;;;;;;;9.90;6.15;;;;;;;11.53;100.00;99789.72;5010089;28;20065;-73
2023/04/15 00:36:41;;;;;;;7.22;4.40;;;;;;;11.14;100.00;99660.72;5010018;28;20084;-72
2023/04/15 00:39:07;;;;;;;14.60;4.20;;;;;;;11.34;100.00;99659.53;5010010;28;20493;-72
2023/04/15 00:41:33;;;;;;;8.48;5.00;;;;;;;11.49;100.00;99675.03;5010700;28;20478;-72
2023/04/15 00:43:59;;;;;;;8.80;5.10;;;;;;;11.60;100.00;99690.66;5009674;28;20124;-73
2023/04/15 00:46:27;;;;;;;7.95;4.78;;;;;;;12.09;100.00;99787.16;5007500;28;20573;-73
2023/04/15 00:48:53;;;;;;;10.70;6.93;;;;;;;11.67;100.00;99738.72;5020369;28;20085;-73
2023/04/15 00:51:19;;;;;;;8.40;5.55;;;;;;;11.30;100.00;99649.97;5009918;28;20436;-73
2023/04/15 00:53:45;;;;;;;9.90;6.38;;;;;;;11.18;100.00;99644.00;5009938;28;20034;-73
2023/04/15 00:56:10;;;;;;;11.80;6.78;;;;;;;11.77;100.00;99745.56;5010183;28;20061;-74
2023/04/15 00:58:36;;;;;;;13.20;8.18;;;;;;;11.84;100.00;99776.97;5008119;28;20372;-73
2023/04/15 01:01:03;;;;;;;10.25;8.02;;;;;;;11.29;100.00;99674.50;5009819;28;20069;-73
2023/04/15 01:03:29;;;;;;;14.15;7.88;;;;;;;11.80;100.00;99759.53;5009451;28;20052;-72
2023/04/15 01:05:57;;;;;;;8.93;6.28;;;;;;;11.36;100.00;99682.25;5006015;28;20037;-72
2023/04/15 01:08:31;;;;;;;9.90;6.07;;;;;;;11.53;100.00;99731.91;5009722;28;20442;-73
2023/04/15 01:11:00;;;;;;;13.00;8.27;;;;;;;10.99;100.00;99624.16;5009567;28;20038;-72
2023/04/15 01:13:25;;;;;;;11.52;8.02;;;;;;;11.74;100.00;99748.25;5009553;28;20057;-72
2023/04/15 01:15:52;;;;;;;14.02;8.10;;;;;;;10.60;100.00;99631.66;5009799;28;20042;-73
2023/04/15 01:18:18;;;;;;;13.27;9.95;;;;;;;10.74;100.00;99631.50;4992229;28;20093;-72
2023/04/15 01:20:44;;;;;;;12.88;8.00;;;;;;;10.84;100.00;99629.59;4990179;28;20080;-72
2023/04/15 01:23:10;;;;;;;21.25;10.18;;;;;;;11.20;100.00;99702.63;5009845;28;20048;-73
2023/04/15 01:25:36;;;;;;;14.43;7.70;;;;;;;11.36;100.00;99720.78;5009049;28;20084;-74
2023/04/15 01:28:02;;;;;;;15.68;9.73;;;;;;;11.12;100.00;99730.75;5009271;28;20030;-73
2023/04/15 01:30:28;;;;;;;18.45;10.95;;;;;;;10.59;100.00;99700.78;5007385;28;20108;-73
2023/04/15 01:32:53;;;;;;;14.85;9.60;;;;;;;10.40;100.00;99673.91;5008193;28;20033;-71
2023/04/15 01:35:20;;;;;;;17.75;9.52;;;;;;;10.88;100.00;99676.78;5008519;28;20034;-73
2023/04/15 01:37:46;;;;;;;15.85;8.85;;;;;;;11.12;100.00;99719.34;5009387;28;20048;-74
2023/04/15 01:40:12;;;;;;;14.50;9.07;;;;;;;10.28;100.00;99554.28;5009175;28;20052;-74
2023/04/15 01:42:38;;;;;;;15.65;9.80;;;;;;;11.04;100.00;99700.22;5009326;28;20077;-72
2023/04/15 01:45:05;;;;;;;18.27;12.10;;;;;;;10.32;100.00;99639.00;5008622;28;20061;-72
2023/04/15 01:47:31;;;;;;;14.95;11.40;;;;;;;9.50;100.00;99555.09;5007091;28;20412;-73
2023/04/15 01:49:56;;;;;;;21.83;13.05;;;;;;;9.51;100.00;99541.16;5008768;28;20046;-72
2023/04/15 01:52:22;;;;;;;19.27;12.50;;;;;;;10.29;100.00;99641.69;5009152;28;20550;-72
2023/04/15 01:54:47;;;;;;;24.52;11.65;;;;;;;9.62;100.00;99513.09;5008783;28;20050;-72
2023/04/15 01:57:13;;;;;;;18.98;10.25;;;;;;;9.75;100.00;99549.63;5008819;28;20136;-74
2023/04/15 01:59:39;;;;;;;17.92;10.90;;;;;;;10.47;100.00;99665.06;5008164;28;20033;-72
2023/04/15 02:02:05;;;;;;;15.88;10.73;;;;;;;10.36;100.00;99664.31;5008943;28;20057;-73
2023/04/15 02:04:31;;;;;;;20.02;10.48;;;;;;;10.07;100.00;99667.22;5009051;28;20058;-74
2023/04/15 02:06:57;;;;;;;13.52;10.30;;;;;;;9.12;100.00;99526.66;5025883;28;20041;-74
2023/04/15 02:09:22;;;;;;;14.93;9.98;;;;;;;9.91;100.00;99656.03;5028103;28;20044;-74
2023/04/15 02:11:48;;;;;;;14.57;10.35;;;;;;;8.81;100.00;99424.91;5015206;28;20045;-73
2023/04/15 02:14:13;;;;;;;14.40;9.82;;;;;;;10.20;100.00;99612.91;5008779;28;20030;-74
2023/04/15 02:16:39;;;;;;;13.55;9.95;;;;;;;9.88;100.00;99630.72;5003881;28;20039;-72
2023/04/15 02:19:04;;;;;;;13.88;9.73;;;;;;;9.83;100.00;99623.75;4988858;28;20077;-74
2023/04/15 02:21:30;;;;;;;13.77;10.82;;;;;;;9.76;100.00;99625.56;4995239;28;20107;-73
2023/04/15 02:23:56;;;;;;;12.70;8.35;;;;;;;8.88;100.00;99482.38;5007927;28;20073;-72
2023/04/15 02:26:21;;;;;;;16.65;10.30;;;;;;;9.72;100.00;99626.50;5008676;28;20044;-73
2023/04/15 02:28:50;;;;;;;20.48;10.30;;;;;;;8.98;100.00;99493.63;5006651;28;20096;-73
2023/04/15 02:31:15;;;;;;;12.85;8.93;;;;;;;9.90;100.00;99608.00;5008259;28;20046;-73
2023/04/15 02:33:41;;;;;;;13.50;8.82;;;;;;;9.35;100.00;99487.19;5008112;28;20051;-73
2023/04/15 02:36:07;;;;;;;14.48;9.73;;;;;;;8.97;100.00;99484.06;5008008;28;20050;-73
2023/04/15 02:38:32;;;;;;;14.00;9.38;;;;;;;8.93;100.00;99469.25;5008872;28;20120;-73
2023/04/15 02:40:58;;;;;;;14.80;9.80;;;;;;;9.58;100.00;99604.81;5007732;28;20145;-73
2023/04/15 02:43:24;;;;;;;12.15;9.18;;;;;;;9.22;100.00;99526.56;5007860;28;20116;-73
2023/04/15 02:45:50;;;;;;;14.50;10.07;;;;;;;8.80;100.00;99468.50;5006434;28;20611;-72
2023/04/15 02:48:17;;;;;;;12.32;9.90;;;;;;;9.47;100.00;99578.72;5000918;28;20037;-73
2023/04/15 02:50:43;;;;;;;14.15;10.52;;;;;;;9.37;100.00;99566.59;5007201;28;20390;-73
2023/04/15 02:53:08;;;;;;;15.63;10.70;;;;;;;9.66;100.00;99590.75;5008097;28;20029;-71
2023/04/15 02:55:34;;;;;;;12.38;9.88;;;;;;;9.57;100.00;99563.78;5007613;28;20092;-74
2023/04/15 02:58:00;;;;;;;12.40;9.88;;;;;;;9.71;100.00;99588.94;5006210;28;20046;-73
2023/04/15 03:00:26;;;;;;;11.82;9.55;;;;;;;9.18;100.00;99469.91;5007052;28;20065;-72
2023/04/15 03:02:58;;;;;;;18.17;10.02;;;;;;;10.00;100.00;99606.13;5007771;28;20570;-72
2023/04/15 03:05:24;;;;;;;14.90;9.10;;;;;;;8.82;100.00;99406.56;5012125;28;20458;-71
2023/04/15 03:07:50;;;;;;;14.32;9.77;;;;;;;9.58;100.00;99557.66;5015709;28;20038;-74
2023/04/15 03:10:16;;;;;;;22.00;9.13;;;;;;;9.90;100.00;99647.28;5007624;28;20057;-73
2023/04/15 03:12:41;;;;;;;14.32;9.77;;;;;;;9.91;100.00;99649.03;5007075;28;20036;-74
2023/04/15 03:15:08;;;;;;;18.13;11.93;;;;;;;9.12;100.00;99530.16;5007499;28;20596;-73
2023/04/15 03:17:33;;;;;;;18.00;10.73;;;;;;;9.13;100.00;99481.28;4996947;28;20113;-73
2023/04/15 03:20:04;;;;;;;12.75;8.55;;;;;;;8.99;100.00;99525.88;4987917;28;20921;-73
2023/04/15 03:22:30;;;;;;;12.38;8.45;;;;;;;8.95;100.00;99513.72;5002912;28;20129;-73
2023/04/15 03:24:56;;;;;;;19.15;7.65;;;;;;;9.59;100.00;99630.97;5007277;28;20050;-73
2023/04/15 03:27:22;;;;;;;12.80;8.50;;;;;;;9.60;100.00;99623.97;5007472;28;20119;-73
2023/04/15 03:29:48;;;;;;;13.40;8.93;;;;;;;8.69;100.00;99500.84;5007666;28;20037;-74
2023/04/15 03:32:14;;;;;;;9.98;7.68;;;;;;;9.78;100.00;99660.50;5007867;28;20073;-74
2023/04/15 03:34:40;;;;;;;12.73;8.55;;;;;;;9.11;100.00;99551.09;5007744;28;20628;-74
2023/04/15 03:37:06;;;;;;;10.27;7.63;;;;;;;9.39;100.00;99662.56;5022893;28;20038;-73
2023/04/15 03:39:32;;;;;;;15.13;8.73;;;;;;;9.00;100.00;99617.47;5007116;28;20053;-73
2023/04/15 03:41:58;;;;;;;15.40;9.40;;;;;;;9.13;100.00;99639.19;5007190;28;20040;-74
2023/04/15 03:44:25;;;;;;;14.43;8.80;;;;;;;9.35;100.00;99650.38;5007644;28;21173;-72
2023/04/15 03:46:50;;;;;;;11.20;7.68;;;;;;;9.47;100.00;99645.03;5002105;28;20498;-73
2023/04/15 03:49:16;;;;;;;12.65;8.88;;;;;;;8.52;100.00;99498.31;5005794;28;20053;-73
2023/04/15 03:51:42;;;;;;;9.38;7.05;;;;;;;9.32;100.00;99637.31;5007329;28;20125;-72
2023/04/15 03:54:07;;;;;;;11.35;7.25;;;;;;;8.85;100.00;99531.25;5007072;28;20042;-74
2023/04/15 03:56:32;;;;;;;14.27;9.13;;;;;;;9.54;100.00;99638.00;5007392;28;20483;-73
2023/04/15 03:58:58;;;;;;;12.05;9.23;;;;;;;9.85;100.00;99704.09;5013569;28;20105;-74
2023/04/15 04:01:23;;;;;;;15.77;10.05;;;;;;;9.18;100.00;99594.69;5007412;28;20042;-73
2023/04/15 04:03:49;;;;;;;15.68;11.60;;;;;;;9.64;100.00;99667.59;5010939;28;20505;-73
2023/04/15 04:06:15;;;;;;;16.80;9.32;;;;;;;9.78;100.00;99667.50;5023322;28;20045;-73
2023/04/15 04:08:41;;;;;;;16.45;9.13;;;;;;;9.17;100.00;99569.38;5012278;28;20038;-74
2023/04/15 04:11:06;;;;;;;13.32;8.75;;;;;;;9.63;100.00;99652.78;5010799;28;20479;-73
2023/04/15 04:13:32;;;;;;;11.98;8.10;;;;;;;9.86;100.00;99673.53;5009549;28;20109;-72
2023/04/15 04:15:57;;;;;;;28.25;10.85;;;;;;;9.15;100.00;99577.22;5009052;28;20402;-73
2023/04/15 04:18:23;;;;;;;19.85;9.82;;;;;;;9.25;100.00;99578.03;4993306;28;20038;-74
2023/04/15 04:20:48;;;;;;;11.65;8.13;;;;;;;9.80;100.00;99713.75;4992219;28;20069;-72
2023/04/15 04:23:14;;;;;;;16.67;7.32;;;;;;;9.35;100.00;99615.47;5011275;28;20042;-74
2023/04/15 04:25:40;;;;;;;10.43;6.90;;;;;;;9.75;100.00;99704.19;5010423;28;20153;-74
2023/04/15 04:28:05;;;;;;;12.32;8.18;;;;;;;9.85;100.00;99725.06;5010534;28;20054;-73
2023/04/15 04:30:31;;;;;;;13.05;8.02;;;;;;;9.91;100.00;99716.28;5010427;28;20528;-73
2023/04/15 04:32:57;;;;;;;11.52;7.65;;;;;;;9.02;100.00;99594.78;5008959;28;20038;-73
2023/04/15 04:35:22;;;;;;;10.82;7.45;;;;;;;9.80;100.00;99697.16;5017444;28;20044;-73
2023/04/15 04:37:48;;;;;;;11.48;7.95;;;;;;;9.27;100.00;99589.34;5020560;28;20196;-73
2023/04/15 04:40:13;;;;;;;16.60;9.20;;;;;;;9.88;100.00;99703.19;5010236;28;20417;-73
2023/04/15 04:42:39;;;;;;;16.42;8.95;;;;;;;9.95;100.00;99725.88;5008570;28;20045;-72
2023/04/15 04:45:05;;;;;;;16.25;8.48;;;;;;;10.20;100.00;99729.13;5009900;28;20612;-73
2023/04/15 04:47:30;;;;;;;14.05;8.10;;;;;;;10.05;100.00;99735.38;5003706;28;20058;-73
2023/04/15 04:49:56;;;;;;;17.77;9.43;;;;;;;10.01;100.00;99727.56;5010135;28;20490;-72
2023/04/15 04:52:21;;;;;;;11.85;8.00;;;;;;;9.52;100.00;99603.97;5009395;28;20081;-72
2023/04/15 04:54:47;;;;;;;11.65;7.18;;;;;;;9.44;100.00;99639.84;5009923;28;20172;-72
2023/04/15 04:57:12;;;;;;;15.55;8.13;;;;;;;9.93;100.00;99710.16;5009464;28;20034;-72
2023/04/15 04:59:39;;;;;;;14.10;6.75;;;;;;;9.96;100.00;99721.50;5010388;28;20037;-73
2023/04/15 05:02:05;;;;;;;11.25;6.03;;;;;;;9.66;100.00;99663.22;5009323;28;20058;-72
2023/04/15 05:04:31;;;;;;;12.77;6.55;;;;;;;9.62;100.00;99643.16;5010238;28;20421;-72
2023/04/15 05:06:58;;;;;;;17.98;6.38;;;;;;;10.51;100.00;99784.81;5020903;28;20045;-72
2023/04/15 05:09:23;;;;;;;9.52;6.28;;;;;;;9.96;100.00;99674.31;5009741;28;20050;-73
2023/04/15 05:11:49;;;;;;;11.30;6.70;;;;;;;10.09;100.00;99765.03;5009054;28;20033;-72
2023/04/15 05:14:15;;;;;;;11.15;5.78;;;;;;;10.22;100.00;99807.78;5009874;28;20030;-73
2023/04/15 05:16:40;;;;;;;10.27;7.00;;;;;;;10.15;100.00;99709.94;5004591;28;20128;-72
2023/04/15 05:19:06;;;;;;;8.82;5.63;;;;;;;10.79;100.00;99810.75;4989518;28;20047;-74
2023/04/15 05:21:32;;;;;;;9.63;5.30;;;;;;;10.29;100.00;99739.56;5027947;28;20038;-74
2023/04/15 05:23:57;;;;;;;17.00;6.57;;;;;;;10.29;100.00;99708.09;5008846;28;20437;-74
2023/04/15 05:26:23;;;;;;;12.32;6.07;;;;;;;10.89;100.00;99833.41;5009513;28;20049;-72
2023/04/15 05:28:49;;;;;;;11.18;6.13;;;;;;;10.77;100.00;99829.16;5006987;28;20426;-72
2023/04/15 05:31:15;;;;;;;16.52;6.85;;;;;;;10.37;100.00;99756.97;5009186;28;20494;-74
2023/04/15 05:33:40;;;;;;;13.60;6.22;;;;;;;10.80;100.00;99799.38;5008976;28;20125;-72
2023/04/15 05:36:06;;;;;;;9.57;6.35;;;;;;;11.33;100.00;99847.78;5020936;28;21296;-74
2023/04/15 05:38:32;;;;;;;11.95;7.15;;;;;;;11.35;100.00;99837.25;5012827;28;20034;-71
2023/04/15 05:40:57;;;;;;;10.88;6.65;;;;;;;11.63;100.00;99850.88;5008770;28;20498;-72
2023/04/15 05:43:23;;;;;;;11.65;7.13;;;;;;;11.66;100.00;99826.31;5008614;28;20133;-73
2023/04/15 05:45:48;;;;;;;13.15;7.80;;;;;;;11.95;100.00;99870.66;4991128;28;20069;-72
2023/04/15 05:48:14;;;;;;;11.88;7.10;;;;;;;11.85;100.00;99875.13;5003048;28;20042;-72
2023/04/15 05:50:41;;;;;;;11.35;8.73;;;;;;;11.18;100.00;99795.44;5009203;28;20053;-72
2023/04/15 05:53:07;;;;;;;10.55;6.35;;;;;;;10.70;100.00;99781.97;5008768;28;20148;-73
2023/04/15 05:55:32;;;;;;;19.52;8.32;;;;;;;11.02;100.00;99767.63;5007227;28;20187;-73
2023/04/15 05:57:58;;;;;;;13.63;7.53;;;;;;;11.94;100.00;99889.91;5008773;28;20121;-72
2023/04/15 06:00:23;;;;;;;11.32;7.38;;;;;;;11.33;100.00;99775.97;5007411;28;20048;-73
2023/04/15 06:02:49;;;;;;;13.20;7.38;;;;;;;12.27;100.00;99891.22;5008526;28;20046;-73
2023/04/15 06:05:15;;;;;;;10.00;8.10;;;;;;;12.17;100.00;99881.69;5012962;28;20493;-73
2023/04/15 06:07:42;;;;;;;17.73;8.95;;;;;;;11.13;100.00;99789.38;5017782;28;20050;-73
2023/04/15 06:10:08;;;;;;;10.88;8.30;;;;;;;11.32;100.00;99814.50;5008260;28;20269;-72
2023/04/15 06:12:34;;;;;;;13.00;8.60;;;;;;;12.10;100.00;99865.13;5008122;28;20486;-72
2023/04/15 06:15:00;;;;;;;13.02;9.82;;;;;;;12.14;100.00;99794.97;5008260;28;20044;-73
2023/04/15 06:17:25;;;;;;;12.20;8.00;;;;;;;12.55;100.00;99814.44;4999920;28;20046;-72
2023/04/15 06:19:54;;;;;;;11.30;8.25;;;;;;;12.16;100.00;99807.19;4988578;28;20073;-71
2023/04/15 06:22:23;;;;;;;13.35;8.32;;;;;;;11.90;100.00;99806.75;5001347;28;20446;-73
2023/04/15 06:24:50;;;;;;;13.25;8.00;;;;;;;12.82;100.00;99903.44;5007504;28;20077;-72
2023/04/15 06:27:15;;;;;;;11.77;8.07;;;;;;;13.15;100.00;99927.44;5008081;28;20046;-73
2023/04/15 06:29:41;;;;;;;17.02;7.53;;;;;;;13.53;100.00;99904.78;5008680;28;20041;-73
2023/04/15 06:32:07;;;;;;;14.43;8.95;;;;;;;13.33;100.00;99904.34;5008100;28;20050;-72
2023/04/15 06:34:32;;;;;;;16.70;10.20;;;;;;;13.06;100.00;99846.84;5007488;28;20137;-71
2023/04/15 06:36:58;;;;;;;12.68;9.07;;;;;;;12.62;100.00;99818.72;5007765;28;20045;-73
2023/04/15 06:39:23;;;;;;;17.73;8.38;;;;;;;13.60;100.00;99939.78;5007635;28;20474;-73
2023/04/15 06:41:49;;;;;;;14.88;8.23;;;;;;;13.06;100.00;99903.91;5007880;28;20375;-73
2023/04/15 06:44:15;;;;;;;14.77;7.72;;;;;;;13.30;100.00;99929.84;5008610;28;20088;-74
2023/04/15 06:46:41;;;;;;;10.35;7.22;;;;;;;13.21;100.00;99931.75;5004672;28;20077;-73
2023/04/15 06:49:07;;;;;;;15.25;8.35;;;;;;;12.93;100.00;99905.03;5005278;28;20119;-74
2023/04/15 06:51:34;;;;;;;14.38;8.10;;;;;;;12.44;100.00;99799.72;5007674;28;20486;-72
2023/04/15 06:54:01;;;;;;;10.75;7.65;;;;;;;12.99;100.00;99821.50;5006964;28;20022;-72
2023/04/15 06:56:27;;;;;;;13.13;8.60;;;;;;;13.67;100.00;99915.94;5006684;28;20471;-73
2023/04/15 06:58:52;;;;;;;9.05;7.28;;;;;;;13.97;100.00;99954.88;5006778;28;20038;-72
2023/04/15 07:01:18;;;;;;;12.73;8.73;;;;;;;13.98;100.00;99948.69;5007468;28;20096;-73
2023/04/15 07:03:44;;;;;;;11.10;7.25;;;;;;;14.06;100.00;99950.25;5006855;28;20046;-73
2023/04/15 07:06:09;;;;;;;13.68;8.95;;;;;;;13.44;100.00;99957.69;5002461;28;20096;-73
2023/04/15 07:08:35;;;;;;;19.50;9.68;;;;;;;13.60;100.00;99922.25;5007439;28;20645;-73
2023/04/15 07:11:01;;;;;;;12.40;8.73;;;;;;;14.23;100.00;99965.72;5006610;28;20148;-72
2023/04/15 07:13:29;;;;;;;17.05;8.85;;;;;;;14.20;100.00;99962.28;5006837;28;20058;-73
2023/04/15 07:15:55;;;;;;;19.50;7.32;;;;;;;14.22;100.00;99937.59;5007014;28;20454;-73
2023/04/15 07:18:21;;;;;;;9.27;6.10;;;;;;;14.51;100.00;99968.59;5000553;28;20061;-73
2023/04/15 07:20:46;;;;;;;10.43;6.40;;;;;;;13.19;100.00;99849.22;5007094;28;20040;-73
2023/04/15 07:23:12;;;;;;;8.93;6.05;;;;;;;12.60;100.00;99860.84;5007430;28;20041;-73
2023/04/15 07:25:37;;;;;;;11.73;6.18;;;;;;;13.25;100.00;99870.16;5006731;28;20042;-74
2023/04/15 07:28:03;;;;;;;17.17;6.35;;;;;;;13.72;100.00;99897.38;5006850;28;20066;-73
2023/04/15 07:30:29;;;;;;;10.90;6.72;;;;;;;14.17;100.00;99957.94;5006765;28;20054;-73
2023/04/15 07:32:55;;;;;;;17.13;6.47;;;;;;;14.02;100.00;99974.09;5006992;28;20026;-74
2023/04/15 07:35:21;;;;;;;9.70;5.78;;;;;;;14.46;100.00;100002.16;5008103;28;20060;-73
2023/04/15 07:37:47;;;;;;;11.55;5.47;;;;;;;14.04;100.00;99985.50;5009343;28;20050;-73
2023/04/15 07:40:14;;;;;;;8.82;5.07;;;;;;;13.65;100.00;99983.66;5011077;28;20077;-74
2023/04/15 07:42:39;;;;;;;8.43;4.93;;;;;;;14.01;100.00;99999.63;5010366;28;20058;-74
2023/04/15 07:45:05;;;;;;;7.05;4.85;;;;;;;13.68;100.00;99996.75;5010665;28;20048;-73
2023/04/15 07:47:31;;;;;;;10.57;3.88;;;;;;;14.29;100.00;100013.09;5006223;28;20095;-74
2023/04/15 07:49:56;;;;;;;5.53;3.03;;;;;;;13.88;100.00;100032.41;5010675;28;20781;-73
2023/04/15 07:52:22;;;;;;;7.15;3.47;;;;;;;13.66;100.00;99922.09;5011067;28;20514;-74
2023/04/15 07:54:47;;;;;;;6.43;4.05;;;;;;;13.85;100.00;99954.22;5009388;28;20418;-74
2023/04/15 07:57:13;;;;;;;10.30;4.53;;;;;;;14.09;100.00;100013.53;5009271;28;20042;-74
2023/04/15 07:59:38;;;;;;;9.40;3.42;;;;;;;14.08;100.00;100026.75;5011157;28;20025;-72
2023/04/15 08:02:04;;;;;;;6.07;4.03;;;;;;;14.10;100.00;100027.59;5008702;28;20466;-74
2023/04/15 08:04:29;;;;;;;13.38;3.88;;;;;;;14.31;100.00;100039.47;5010473;28;20042;-73
2023/04/15 08:06:55;;;;;;;4.82;2.95;;;;;;;13.92;100.00;99932.09;5007312;28;20042;-74
2023/04/15 08:09:21;;;;;;;10.35;4.20;;;;;;;14.50;100.00;100046.06;5010484;28;20050;-72
2023/04/15 08:11:48;;;;;;;4.72;2.80;;;;;;;14.41;100.00;100038.34;5005659;28;20391;-72
2023/04/15 08:14:14;;;;;;;7.30;3.40;;;;;;;13.62;100.00;99923.03;5006159;28;20092;-73
2023/04/15 08:16:39;;;;;;;6.90;3.03;;;;;;;14.35;100.00;100002.41;4990679;28;20042;-73
2023/04/15 08:19:05;;;;;;;4.80;3.17;;;;;;;14.87;100.00;100066.41;4990838;28;20114;-73
2023/04/15 08:21:31;;;;;;;7.75;3.30;;;;;;;14.75;100.00;100064.91;4997615;28;20053;-73
2023/04/15 08:23:56;;;;;;;9.73;3.17;;;;;;;14.27;100.00;99953.34;5010792;28;20046;-73
2023/04/15 08:26:22;;;;;;;8.45;4.72;;;;;;;14.75;100.00;100009.44;5010574;28;20124;-73
2023/04/15 08:28:48;;;;;;;8.90;3.97;;;;;;;15.24;100.00;100062.00;5010078;28;20482;-74
2023/04/15 08:31:15;;;;;;;10.82;4.60;;;;;;;15.12;100.00;100050.81;5010098;28;20119;-73
2023/04/15 08:33:41;;;;;;;9.75;4.25;;;;;;;14.81;100.00;99968.81;5008177;28;20056;-73
2023/04/15 08:36:07;;;;;;;9.38;4.10;;;;;;;15.12;100.00;100011.16;5010058;28;20065;-73
2023/04/15 08:38:33;;;;;;;8.75;4.88;;;;;;;14.76;100.00;99957.50;5010631;28;20431;-71
2023/04/15 08:41:10;;;;;;;11.13;5.00;;;;;;;15.37;100.00;100081.94;5009734;28;20065;-73
2023/04/15 08:43:45;;;;;;;6.93;4.32;;;;;;;15.66;100.00;100082.97;5010544;28;20641;-73
2023/04/15 08:46:12;;;;;;;5.40;3.38;;;;;;;15.39;100.00;99977.88;5010094;28;20129;-73
2023/04/15 08:48:39;;;;;;;8.40;5.40;;;;;;;15.91;100.00;100084.09;5003800;28;20073;-73
2023/04/15 08:51:06;;;;;;;8.30;3.78;;;;;;;15.96;100.00;100094.53;5009363;28;20474;-73
2023/04/15 08:53:32;;;;;;;7.85;3.75;;;;;;;14.98;100.00;99891.75;5010620;28;20124;-74
2023/04/15 08:56:04;;;;;;;8.45;4.10;;;;;;;16.02;100.00;100081.16;5009423;28;20041;-74
2023/04/15 08:58:30;;;;;;;6.83;4.27;;;;;;;15.53;100.00;100005.75;5009884;28;20517;-74
2023/04/15 09:00:56;;;;;;;11.75;4.32;;;;;;;16.23;98.60;100093.78;5009729;28;20034;-73
2023/04/15 09:03:22;;;;;;;9.75;4.38;;;;;;;16.14;100.00;100075.50;5009627;28;20054;-74
2023/04/15 09:05:49;;;;;;;9.27;5.03;;;;;;;16.37;100.00;100080.16;5006798;28;20044;-73
2023/04/15 09:08:15;;;;;;;10.10;4.72;;;;;;;16.33;100.00;100070.53;5010062;28;20030;-71
2023/04/15 09:10:40;;;;;;;6.10;3.88;;;;;;;16.40;100.00;100063.28;5008805;28;20083;-73
2023/04/15 09:13:06;;;;;;;4.72;3.28;;;;;;;16.58;100.00;100076.00;5009044;28;20928;-73
2023/04/15 09:15:32;;;;;;;7.45;3.00;;;;;;;16.16;97.28;99996.06;5008845;28;20049;-75
2023/04/15 09:17:58;;;;;;;6.00;3.25;;;;;;;16.67;91.47;100067.78;4996316;28;20117;-73
2023/04/15 09:20:23;;;;;;;7.10;2.92;;;;;;;16.22;94.87;99982.63;4990193;28;20034;-72
2023/04/15 09:22:50;;;;;;;5.97;3.08;;;;;;;16.23;100.00;99981.72;5006290;28;20865;-72
2023/04/15 09:25:23;;;;;;;11.07;4.25;;;;;;;16.94;99.21;100083.75;5007506;28;20050;-74
2023/04/15 09:27:54;;;;;;;6.83;2.87;;;;;;;16.31;87.93;99966.47;5008865;28;20042;-73
2023/04/15 09:30:20;;;;;;;7.03;2.40;;;;;;;16.25;82.84;99966.66;5008538;28;20439;-73
2023/04/15 09:32:52;;;;;;;5.40;2.90;;;;;;;16.88;82.55;100076.88;5008738;28;20037;-73
2023/04/15 09:35:20;;;;;;;8.10;3.25;;;;;;;16.57;86.76;99981.53;5014647;28;20064;-73
2023/04/15 09:37:46;;;;;;;11.05;3.05;;;;;;;17.53;90.24;100074.75;5027302;28;20391;-73
2023/04/15 09:40:12;;;;;;;5.95;3.38;;;;;;;17.20;84.96;100045.78;5028556;28;20049;-73
2023/04/15 09:42:55;;;;;;;5.20;2.50;;;;;;;17.83;82.08;100072.00;5028851;28;20069;-73
2023/04/15 09:45:22;;;;;;;8.93;2.70;;;;;;;18.33;80.98;100074.56;5028747;28;20103;-72
2023/04/15 09:47:50;;;;;;;4.78;2.33;;;;;;;18.24;78.56;100067.84;5012791;28;20042;-74
2023/04/15 09:50:15;;;;;;;7.22;3.05;;;;;;;18.47;74.83;100032.44;5009540;28;20033;-74
2023/04/15 09:52:42;;;;;;;4.95;2.22;;;;;;;18.00;71.47;99987.28;5008319;28;20520;-73
2023/04/15 09:55:08;;;;;;;6.00;2.20;;;;;;;19.11;66.83;100070.72;5008850;28;20061;-74
2023/04/15 09:57:35;;;;;;;4.47;1.98;;;;;;;19.09;61.60;100060.13;5008505;28;20057;-73
2023/04/15 10:00:03;;;;;;;4.45;2.55;;;;;;;18.51;57.82;99983.53;5008914;28;20041;-72
2023/04/15 10:02:29;;;;;;;5.70;1.60;;;;;;;19.46;57.83;100053.28;5009063;28;20065;-73
2023/04/15 10:04:56;;;;;;;6.05;2.35;;;;;;;19.92;58.68;100051.28;5005922;28;20108;-72
2023/04/15 10:07:22;;;;;;;4.95;1.95;;;;;;;20.29;59.30;100049.63;5008257;28;20486;-73
2023/04/15 10:09:48;;;;;;;7.25;2.38;;;;;;;20.25;57.54;100029.38;5008836;28;20571;-72
2023/04/15 10:12:18;;;;;;;5.32;2.20;;;;;;;20.17;56.80;99962.28;5008335;28;20069;-73
2023/04/15 10:14:51;;;;;;;4.60;2.33;;;;;;;20.42;56.21;99957.53;5009021;28;20105;-73
2023/04/15 10:17:19;;;;;;;5.75;1.92;;;;;;;21.22;54.53;100038.13;5002295;28;20048;-74
2023/04/15 10:19:45;;;;;;;4.70;2.58;;;;;;;21.14;55.87;100046.53;4988893;28;20050;-72
2023/04/15 10:22:11;;;;;;;6.60;2.67;;;;;;;21.07;52.82;100027.28;5000695;28;20046;-74
2023/04/15 10:24:38;;;;;;;4.05;1.83;;;;;;;20.41;52.01;99954.91;5006633;28;20487;-73
2023/04/15 10:27:05;;;;;;;28.88;4.38;;;;;;;21.08;50.42;99964.97;5008200;28;20073;-73
2023/04/15 10:29:30;;;;;;;5.55;1.65;;;;;;;21.21;48.24;99948.31;5007199;28;20112;-73
2023/04/15 10:32:00;;;;;;;5.20;1.73;;;;;;;21.50;48.27;99955.72;5007607;28;20057;-73
2023/04/15 10:34:26;;;;;;;4.28;1.95;;;;;;;21.78;47.11;100007.66;5008181;28;20111;-74
2023/04/15 10:36:57;;;;;;;4.05;1.92;;;;;;;21.79;44.85;100057.47;5023869;28;20491;-73
2023/04/15 10:39:43;;;;;;;4.47;1.60;;;;;;;21.99;46.32;99997.66;5007886;28;20490;-73
2023/04/15 10:42:12;;;;;;;3.60;1.70;;;;;;;21.65;45.39;100073.34;5007833;28;20077;-73
2023/04/15 10:44:41;;;;;;;3.65;2.00;;;;;;;21.85;48.25;100050.94;5008159;28;20034;-72
2023/04/15 10:47:17;;;;;;;5.82;2.30;;;;;;;21.83;47.93;100028.78;5002641;28;20079;-73
2023/04/15 10:49:51;;;;;;;3.75;1.98;;;;;;;22.05;47.80;100037.38;5005912;28;20462;-73
2023/04/15 10:52:21;;;;;;;5.70;2.55;;;;;;;22.36;45.97;99992.09;5007473;28;20041;-73
2023/04/15 10:54:47;;;;;;;6.90;2.13;;;;;;;21.78;45.06;100055.75;5008038;28;20052;-73
2023/04/15 10:57:23;;;;;;;7.05;2.65;;;;;;;21.15;47.10;99996.69;5008640;28;20425;-72
2023/04/15 11:00:03;;;;;;;3.70;1.83;;;;;;;22.38;48.26;100068.59;5008722;28;20045;-73
2023/04/15 11:02:41;;;;;;;7.18;2.47;;;;;;;22.89;46.69;100060.44;5008702;28;20357;-73
2023/04/15 11:05:06;;;;;;;9.65;2.38;;;;;;;22.49;46.89;100023.44;5009775;28;20053;-73
2023/04/15 11:07:38;;;;;;;4.28;2.17;;;;;;;22.41;45.44;100064.94;5017880;28;20080;-73
2023/04/15 11:10:29;;;;;;;6.82;2.47;;;;;;;22.88;47.40;100058.75;5006728;28;20409;-73
2023/04/15 11:13:15;;;;;;;4.57;1.60;;;;;;;21.92;42.50;99954.38;5005052;28;20085;-73
2023/04/15 11:15:43;;;;;;;3.75;2.15;;;;;;;21.26;41.88;99949.81;5006209;28;20054;-74
2023/04/15 11:18:10;;;;;;;5.13;1.75;;;;;;;22.01;44.98;100070.56;4993566;28;20077;-74